Time;durP1;ratioP1;P1;durP2;ratioP2;P2;SDS_P1;SDS_P2;PMS_P1;PMS_P2;Temp;Humidity;BMP_temperature;BMP_pressure;BME280_temperature;BME280_humidity;BME280_pressure;Samples;Min_cycle;Max_cycle;Signal;HPM_P1;HPM_P2
2023/06/05 00:01:59;;;;;;;3.13;2.10;;;20.10;99.90;;;;;;5092757;28;20237;-73
2023/06/05 00:04:26;;;;;;;1.77;1.67;;;20.10;99.90;;;;;;5092841;28;20209;-73
2023/06/05 00:06:54;;;;;;;7.25;2.75;;;20.00;99.90;;;;;;5077223;28;20238;-73
2023/06/05 00:09:21;;;;;;;2.67;2.00;;;20.00;99.90;;;;;;5071501;28;20245;-74
2023/06/05 00:11:48;;;;;;;2.35;1.48;;;20.00;99.90;;;;;;5075212;28;20237;-73
2023/06/05 00:14:15;;;;;;;2.58;1.75;;;20.00;99.90;;;;;;5092076;28;20244;-73
2023/06/05 00:16:42;;;;;;;3.35;2.00;;;19.90;99.90;;;;;;5092739;28;20270;-72
2023/06/05 00:19:09;;;;;;;1.50;1.40;;;19.90;99.90;;;;;;5093124;28;20237;-73
2023/06/05 00:21:36;;;;;;;2.60;2.00;;;19.80;99.90;;;;;;5092525;28;20648;-76
2023/06/05 00:24:04;;;;;;;2.40;2.20;;;19.80;99.90;;;;;;5092813;28;20246;-73
2023/06/05 00:26:31;;;;;;;1.85;1.63;;;19.80;99.90;;;;;;5092197;28;20248;-73
2023/06/05 00:28:58;;;;;;;2.17;1.98;;;19.80;99.90;;;;;;5092301;28;20251;-72
2023/06/05 00:31:25;;;;;;;2.45;2.25;;;19.70;99.90;;;;;;5092133;28;20630;-73
2023/06/05 00:33:52;;;;;;;5.97;2.72;;;19.70;99.90;;;;;;5092689;28;20213;-73
2023/06/05 00:36:22;;;;;;;3.60;2.00;;;19.70;99.90;;;;;;5091928;28;20278;-77
2023/06/05 00:38:50;;;;;;;2.13;1.90;;;19.70;99.90;;;;;;5092310;28;20209;-74
2023/06/05 00:41:18;;;;;;;4.95;2.00;;;19.60;99.90;;;;;;5091853;28;20227;-75
2023/06/05 00:43:45;;;;;;;2.38;2.20;;;19.50;99.90;;;;;;5092100;28;20240;-72
2023/06/05 00:46:12;;;;;;;2.60;2.40;;;19.60;99.90;;;;;;5092448;28;20209;-73
2023/06/05 00:48:41;;;;;;;2.22;1.95;;;19.60;99.90;;;;;;5091151;28;20681;-73
2023/06/05 00:51:10;;;;;;;2.45;2.25;;;19.60;99.90;;;;;;5092595;28;20245;-77
2023/06/05 00:53:38;;;;;;;2.33;1.65;;;19.60;99.90;;;;;;5091721;28;20205;-72
2023/06/05 00:56:06;;;;;;;2.67;2.47;;;19.50;99.90;;;;;;5091691;28;20712;-74
2023/06/05 00:58:34;;;;;;;2.63;2.40;;;19.50;99.90;;;;;;5091982;28;20245;-72
2023/06/05 01:01:04;;;;;;;2.45;2.17;;;19.40;99.90;;;;;;5092073;28;20236;-74
2023/06/05 01:03:33;;;;;;;3.13;1.70;;;19.40;99.90;;;;;;5091625;28;20209;-74
2023/06/05 01:06:03;;;;;;;2.08;1.90;;;19.40;99.90;;;;;;5091573;28;20756;-75
2023/06/05 01:08:38;;;;;;;3.15;1.58;;;19.30;99.90;;;;;;5091599;28;20359;-72
2023/06/05 01:11:10;;;;;;;2.97;1.98;;;19.30;99.90;;;;;;5091627;28;20236;-71
2023/06/05 01:13:45;;;;;;;2.30;2.10;;;19.30;99.90;;;;;;5091854;28;20216;-73
2023/06/05 01:16:15;;;;;;;5.43;2.47;;;19.30;99.90;;;;;;5091649;28;20264;-72
2023/06/05 01:18:46;;;;;;;2.50;2.30;;;19.30;99.90;;;;;;5091996;28;20676;-71
2023/06/05 01:21:16;;;;;;;2.35;2.13;;;19.30;99.90;;;;;;5091331;28;20213;-71
2023/06/05 01:23:45;;;;;;;3.60;2.30;;;19.30;99.90;;;;;;5091785;28;20233;-75
2023/06/05 01:26:21;;;;;;;3.13;2.90;;;19.20;99.90;;;;;;5091457;28;20243;-73
2023/06/05 01:28:50;;;;;;;3.03;2.63;;;19.10;99.90;;;;;;5091853;28;20210;-75
2023/06/05 01:31:21;;;;;;;2.45;2.10;;;19.10;99.90;;;;;;5091047;28;20240;-73
2023/06/05 01:33:56;;;;;;;4.25;1.98;;;19.00;99.90;;;;;;5091406;28;20306;-72
2023/06/05 01:36:23;;;;;;;2.47;2.20;;;19.10;99.90;;;;;;5090804;28;20240;-72
2023/06/05 01:38:54;;;;;;;2.97;2.67;;;19.10;99.90;;;;;;5091383;28;20229;-70
2023/06/05 01:41:22;;;;;;;2.75;1.98;;;19.00;99.90;;;;;;5091000;28;20243;-73
2023/06/05 01:43:49;;;;;;;2.30;2.10;;;18.90;99.90;;;;;;5091321;28;20237;-74
2023/06/05 01:46:19;;;;;;;3.22;2.92;;;19.00;99.90;;;;;;5090602;28;20244;-72
2023/06/05 01:48:46;;;;;;;2.75;2.55;;;19.00;99.90;;;;;;5091225;28;20687;-73
2023/06/05 01:51:13;;;;;;;2.75;2.55;;;18.90;99.90;;;;;;5091256;28;20201;-78
2023/06/05 01:53:40;;;;;;;3.00;1.77;;;18.90;99.90;;;;;;5091284;28;20737;-72
2023/06/05 01:56:08;;;;;;;2.67;2.40;;;19.00;99.90;;;;;;5082085;28;20566;-72
2023/06/05 01:58:36;;;;;;;2.97;2.50;;;18.90;99.90;;;;;;5069969;28;20299;-73
2023/06/05 02:01:05;;;;;;;2.92;2.72;;;18.90;99.90;;;;;;5070739;28;20301;-72
2023/06/05 02:03:32;;;;;;;3.97;2.45;;;18.90;99.90;;;;;;5070369;28;20241;-78
2023/06/05 02:05:59;;;;;;;5.07;3.65;;;19.00;99.90;;;;;;5070760;28;20670;-73
2023/06/05 02:08:28;;;;;;;2.60;2.40;;;18.90;99.90;;;;;;5064701;28;20209;-72
2023/06/05 02:10:55;;;;;;;3.30;2.83;;;18.90;99.90;;;;;;5052898;28;20207;-79
2023/06/05 02:13:24;;;;;;;2.92;2.65;;;18.90;99.90;;;;;;5067805;28;20248;-78
2023/06/05 02:15:56;;;;;;;3.03;2.47;;;18.90;99.90;;;;;;5070648;28;20230;-71
2023/06/05 02:18:25;;;;;;;2.75;2.55;;;18.90;99.90;;;;;;5070059;28;20214;-79
2023/06/05 02:20:56;;;;;;;4.78;2.60;;;19.00;99.90;;;;;;5070457;28;20210;-72
2023/06/05 02:23:23;;;;;;;2.78;2.47;;;18.90;99.90;;;;;;5069866;28;20263;-80
2023/06/05 02:25:49;;;;;;;6.13;3.78;;;18.90;99.90;;;;;;5086107;28;20233;-78
2023/06/05 02:28:17;;;;;;;2.92;2.38;;;18.90;99.90;;;;;;5072594;28;20234;-78
2023/06/05 02:30:47;;;;;;;3.75;2.35;;;18.90;99.90;;;;;;5074945;28;20217;-72
2023/06/05 02:33:15;;;;;;;3.17;2.70;;;18.90;99.90;;;;;;5067711;28;20206;-73
2023/06/05 02:35:42;;;;;;;3.47;3.17;;;18.90;99.90;;;;;;5089015;28;20616;-72
2023/06/05 02:38:09;;;;;;;3.10;2.83;;;18.80;99.90;;;;;;5090614;28;20236;-73
2023/06/05 02:40:37;;;;;;;5.50;3.15;;;18.80;99.90;;;;;;5090056;28;20201;-72
2023/06/05 02:43:05;;;;;;;5.60;3.50;;;18.80;99.90;;;;;;5090792;28;20240;-72
2023/06/05 02:45:34;;;;;;;5.38;2.90;;;18.70;99.90;;;;;;5085365;28;20259;-74
2023/06/05 02:48:02;;;;;;;3.63;3.33;;;18.70;99.90;;;;;;5078545;28;20296;-73
2023/06/05 02:50:29;;;;;;;4.07;2.72;;;18.70;99.90;;;;;;5088934;28;20233;-79
2023/06/05 02:52:56;;;;;;;4.65;3.45;;;18.70;99.90;;;;;;5090077;28;20209;-74
2023/06/05 02:55:23;;;;;;;6.53;3.25;;;18.70;99.90;;;;;;5090166;28;20284;-74
2023/06/05 02:57:50;;;;;;;3.63;3.33;;;18.70;99.90;;;;;;5090158;28;20229;-72
2023/06/05 03:00:18;;;;;;;3.50;3.20;;;18.70;99.90;;;;;;5090219;28;20259;-72
2023/06/05 03:02:48;;;;;;;3.85;2.70;;;18.70;99.90;;;;;;5090250;28;20224;-73
2023/06/05 03:05:18;;;;;;;3.40;2.85;;;18.70;99.90;;;;;;5080557;28;20635;-73
2023/06/05 03:07:45;;;;;;;6.30;3.92;;;18.70;99.90;;;;;;5070180;28;20230;-72
2023/06/05 03:10:12;;;;;;;4.55;3.47;;;18.70;99.90;;;;;;5068833;28;20238;-73
2023/06/05 03:12:39;;;;;;;3.30;3.05;;;18.70;99.90;;;;;;5066209;28;20641;-71
2023/06/05 03:15:07;;;;;;;5.88;2.67;;;18.70;99.90;;;;;;5073478;28;20206;-76
2023/06/05 03:17:34;;;;;;;2.85;2.65;;;18.60;99.90;;;;;;5061059;28;20215;-71
2023/06/05 03:20:01;;;;;;;3.65;3.00;;;18.60;99.90;;;;;;5072583;28;20662;-73
2023/06/05 03:22:30;;;;;;;2.97;2.78;;;18.60;99.90;;;;;;5073267;28;20202;-71
2023/06/05 03:24:57;;;;;;;3.50;3.15;;;18.60;99.90;;;;;;5073235;28;20640;-73
2023/06/05 03:27:24;;;;;;;3.58;3.03;;;18.50;99.90;;;;;;5073223;28;20210;-73
2023/06/05 03:29:51;;;;;;;4.10;3.50;;;18.40;99.90;;;;;;5063784;28;20210;-74
2023/06/05 03:32:18;;;;;;;5.75;3.05;;;18.50;99.90;;;;;;5073033;28;20241;-75
2023/06/05 03:34:48;;;;;;;3.53;3.10;;;18.50;99.90;;;;;;5072658;28;20210;-75
2023/06/05 03:37:15;;;;;;;4.97;3.45;;;18.50;99.90;;;;;;5072926;28;20602;-72
2023/06/05 03:39:43;;;;;;;4.63;4.22;;;18.50;99.90;;;;;;5073263;28;20283;-73
2023/06/05 03:42:11;;;;;;;3.60;3.30;;;18.50;99.90;;;;;;5073400;28;20299;-73
2023/06/05 03:44:38;;;;;;;3.88;3.55;;;18.40;99.90;;;;;;5073185;28;20202;-71
2023/06/05 03:47:05;;;;;;;4.65;3.42;;;18.50;99.90;;;;;;5072862;28;20286;-73
2023/06/05 03:49:33;;;;;;;5.13;3.70;;;18.50;99.90;;;;;;5072245;28;20279;-73
2023/06/05 03:52:02;;;;;;;3.58;3.28;;;18.50;99.90;;;;;;5073005;28;20240;-72
2023/06/05 03:54:32;;;;;;;3.85;3.55;;;18.50;99.90;;;;;;5072726;28;20198;-73
2023/06/05 03:57:02;;;;;;;3.83;3.50;;;18.50;99.90;;;;;;5072990;28;20295;-73
2023/06/05 03:59:28;;;;;;;4.55;3.30;;;18.40;99.90;;;;;;5072490;28;20237;-76
2023/06/05 04:01:56;;;;;;;3.03;2.78;;;18.50;99.90;;;;;;5073226;28;20202;-83
2023/06/05 04:04:23;;;;;;;3.72;3.40;;;18.50;99.90;;;;;;5066470;28;20249;-80
2023/06/05 04:06:50;;;;;;;4.90;3.13;;;18.50;99.90;;;;;;5064724;28;20256;-80
2023/06/05 04:09:17;;;;;;;3.45;3.10;;;18.50;99.90;;;;;;5072609;28;20209;-80
2023/06/05 04:11:45;;;;;;;3.38;3.05;;;18.50;99.90;;;;;;5072791;28;20216;-71
2023/06/05 04:14:14;;;;;;;3.75;3.45;;;18.50;99.90;;;;;;5074133;28;20221;-74
2023/06/05 04:16:42;;;;;;;3.17;2.85;;;18.40;99.90;;;;;;5093037;28;20278;-72
2023/06/05 04:19:11;;;;;;;3.47;3.17;;;18.50;99.90;;;;;;5077981;28;20213;-78
2023/06/05 04:21:39;;;;;;;4.22;3.28;;;18.50;99.90;;;;;;5072403;28;20237;-79
2023/06/05 04:24:09;;;;;;;6.15;3.92;;;18.50;99.90;;;;;;5068681;28;20232;-74
2023/06/05 04:26:36;;;;;;;4.55;3.45;;;18.50;99.90;;;;;;5061419;28;20252;-81
2023/06/05 04:29:09;;;;;;;6.13;3.83;;;18.50;99.90;;;;;;5071215;28;20238;-76
2023/06/05 04:31:40;;;;;;;4.32;3.83;;;18.40;99.90;;;;;;5071318;28;20221;-73
2023/06/05 04:34:08;;;;;;;5.97;3.53;;;18.40;99.90;;;;;;5071521;28;20305;-82
2023/06/05 04:36:36;;;;;;;4.35;3.55;;;18.40;99.90;;;;;;5070646;28;20238;-76
2023/06/05 04:39:03;;;;;;;3.42;3.13;;;18.50;99.90;;;;;;5072108;28;20206;-82
2023/06/05 04:41:32;;;;;;;3.13;2.90;;;18.50;99.90;;;;;;5070706;28;20210;-79
2023/06/05 04:44:00;;;;;;;5.45;3.55;;;18.50;99.90;;;;;;5072228;28;20210;-82
2023/06/05 04:46:27;;;;;;;4.18;3.78;;;18.50;99.90;;;;;;5071669;28;20206;-81
2023/06/05 04:48:57;;;;;;;3.60;3.30;;;18.50;99.90;;;;;;5072037;28;20242;-76
2023/06/05 04:51:24;;;;;;;4.63;3.70;;;18.50;99.90;;;;;;5071650;28;20256;-81
2023/06/05 04:53:53;;;;;;;3.60;3.30;;;18.60;99.90;;;;;;5072009;28;20249;-75
2023/06/05 04:56:22;;;;;;;6.32;4.13;;;18.60;99.90;;;;;;5071494;28;20313;-75
2023/06/05 04:58:50;;;;;;;6.32;4.38;;;18.60;99.90;;;;;;5071740;28;20248;-75
2023/06/05 05:01:17;;;;;;;4.95;3.65;;;18.60;99.90;;;;;;5071377;28;20217;-73
2023/06/05 05:03:46;;;;;;;4.05;3.50;;;18.70;99.90;;;;;;5068393;28;20198;-78
2023/06/05 05:06:17;;;;;;;4.22;3.80;;;18.70;99.90;;;;;;5071344;28;20665;-77
2023/06/05 05:08:46;;;;;;;4.65;3.83;;;18.70;99.90;;;;;;5071800;28;20213;-74
2023/06/05 05:11:13;;;;;;;4.13;3.83;;;18.70;99.90;;;;;;5071609;28;20240;-76
2023/06/05 05:13:40;;;;;;;5.13;3.78;;;18.60;99.90;;;;;;5071863;28;20684;-76
2023/06/05 05:16:08;;;;;;;3.72;3.42;;;18.70;99.90;;;;;;5071560;28;20276;-79
2023/06/05 05:18:36;;;;;;;7.30;4.15;;;18.80;99.90;;;;;;5062514;28;20211;-77
2023/06/05 05:21:04;;;;;;;7.25;4.75;;;18.80;99.90;;;;;;5067395;28;20241;-75
2023/06/05 05:23:33;;;;;;;4.05;3.60;;;18.60;99.90;;;;;;5070993;28;20232;-77
2023/06/05 05:26:00;;;;;;;6.47;4.75;;;18.70;99.90;;;;;;5065175;28;20314;-79
2023/06/05 05:28:27;;;;;;;4.88;3.58;;;18.30;99.90;;;;;;5070843;28;20260;-73
2023/06/05 05:30:55;;;;;;;4.45;3.45;;;18.50;99.90;;;;;;5086059;28;20263;-75
2023/06/05 05:33:22;;;;;;;4.55;4.15;;;18.40;99.90;;;;;;5090330;28;20225;-73
2023/06/05 05:35:50;;;;;;;5.80;3.20;;;18.50;99.90;;;;;;5091482;28;20233;-73
2023/06/05 05:38:17;;;;;;;4.93;3.47;;;18.50;99.90;;;;;;5090846;28;20224;-73
2023/06/05 05:40:45;;;;;;;3.83;3.42;;;18.60;99.90;;;;;;5091495;28;20237;-72
2023/06/05 05:43:12;;;;;;;4.20;3.65;;;18.70;99.90;;;;;;5091051;28;20233;-72
2023/06/05 05:45:40;;;;;;;6.15;3.88;;;18.80;99.90;;;;;;5090969;28;20583;-73
2023/06/05 05:48:08;;;;;;;15.38;4.00;;;18.90;99.90;;;;;;5091480;28;20209;-72
2023/06/05 05:50:35;;;;;;;5.63;4.32;;;18.90;99.90;;;;;;5090967;28;20673;-76
2023/06/05 05:53:01;;;;;;;4.70;3.78;;;18.80;99.90;;;;;;5068683;28;20244;-72
2023/06/05 05:55:30;;;;;;;4.03;3.72;;;18.90;99.90;;;;;;5082670;28;20602;-73
2023/06/05 05:57:58;;;;;;;4.10;3.47;;;19.00;99.90;;;;;;5090972;28;20268;-73
2023/06/05 06:00:25;;;;;;;5.53;4.43;;;19.00;99.90;;;;;;5090211;28;20705;-72
2023/06/05 06:02:53;;;;;;;5.28;4.63;;;19.20;99.90;;;;;;5091119;28;20209;-77
2023/06/05 06:05:20;;;;;;;4.18;3.78;;;19.30;99.90;;;;;;5080391;28;20237;-73
2023/06/05 06:07:47;;;;;;;5.63;3.97;;;19.30;99.90;;;;;;5070452;28;20213;-72
2023/06/05 06:10:15;;;;;;;7.05;3.83;;;19.40;99.90;;;;;;5070678;28;20240;-72
2023/06/05 06:12:42;;;;;;;4.88;4.40;;;19.40;99.90;;;;;;5070687;28;20218;-71
2023/06/05 06:15:11;;;;;;;5.80;4.43;;;19.50;99.90;;;;;;5079630;28;20217;-72
2023/06/05 06:17:38;;;;;;;6.38;3.83;;;19.50;99.90;;;;;;5090630;28;20272;-72
2023/06/05 06:20:06;;;;;;;4.53;4.13;;;19.50;99.90;;;;;;5090731;28;20237;-73
2023/06/05 06:22:33;;;;;;;4.40;4.00;;;19.60;99.90;;;;;;5090506;28;20292;-73
2023/06/05 06:25:01;;;;;;;4.82;4.18;;;19.70;99.90;;;;;;5090626;28;20241;-77
2023/06/05 06:27:28;;;;;;;3.65;3.28;;;19.90;99.90;;;;;;5090004;28;20209;-73
2023/06/05 06:29:55;;;;;;;3.63;2.97;;;20.00;99.90;;;;;;5071706;28;20232;-73
2023/06/05 06:32:25;;;;;;;3.28;2.97;;;20.10;99.90;;;;;;5079621;28;20209;-71
2023/06/05 06:34:53;;;;;;;5.45;3.15;;;20.30;99.90;;;;;;5062937;28;20207;-71
2023/06/05 06:37:21;;;;;;;3.15;2.58;;;20.40;99.90;;;;;;5068341;28;20265;-77
2023/06/05 06:39:49;;;;;;;5.50;3.50;;;20.50;99.90;;;;;;5062863;28;20198;-77
2023/06/05 06:42:16;;;;;;;3.17;2.97;;;20.60;99.90;;;;;;5061692;28;20234;-73
2023/06/05 06:44:43;;;;;;;4.15;3.72;;;20.70;99.90;;;;;;5065051;28;20285;-76
2023/06/05 06:47:10;;;;;;;4.15;3.75;;;20.90;99.90;;;;;;5071356;28;20669;-72
2023/06/05 06:49:39;;;;;;;3.83;3.22;;;20.90;99.90;;;;;;5073949;28;20688;-73
2023/06/05 06:52:06;;;;;;;7.22;3.25;;;20.90;99.90;;;;;;5070625;28;20217;-72
2023/06/05 06:54:33;;;;;;;3.20;3.00;;;20.90;99.90;;;;;;5066595;28;20234;-72
2023/06/05 06:57:00;;;;;;;3.00;2.75;;;21.00;99.90;;;;;;5066216;28;20242;-70
2023/06/05 06:59:27;;;;;;;3.97;3.40;;;21.10;99.90;;;;;;5071878;28;20206;-72
2023/06/05 07:02:12;;;;;;;4.90;3.50;;;21.50;99.90;;;;;;5067326;28;20244;-70
2023/06/05 07:04:41;;;;;;;5.43;3.13;;;21.90;99.90;;;;;;5073682;28;20206;-71
2023/06/05 07:07:10;;;;;;;6.03;3.22;;;22.00;99.90;;;;;;5074231;28;20216;-71
2023/06/05 07:09:37;;;;;;;4.53;2.88;;;22.10;99.90;;;;;;5073847;28;20198;-71
2023/06/05 07:12:05;;;;;;;4.45;3.17;;;22.00;99.90;;;;;;5073708;28;20287;-70
2023/06/05 07:14:33;;;;;;;4.10;3.28;;;22.00;99.90;;;;;;5066834;28;20210;-72
2023/06/05 07:17:00;;;;;;;3.45;3.25;;;22.00;99.90;;;;;;5066095;28;20226;-70
2023/06/05 07:19:28;;;;;;;2.65;2.40;;;22.20;99.90;;;;;;5064663;28;20225;-74
2023/06/05 07:21:57;;;;;;;3.05;2.75;;;22.40;99.90;;;;;;5060005;28;20202;-70
2023/06/05 07:24:25;;;;;;;4.18;3.30;;;22.50;99.90;;;;;;5063639;28;20206;-75
2023/06/05 07:26:55;;;;;;;3.67;3.17;;;22.20;99.90;;;;;;5069323;28;20682;-69
2023/06/05 07:29:22;;;;;;;5.20;3.30;;;22.40;99.90;;;;;;5072990;28;20202;-68
2023/06/05 07:31:50;;;;;;;4.75;4.25;;;23.20;99.90;;;;;;5065054;28;20264;-73
2023/06/05 07:34:18;;;;;;;3.53;2.92;;;23.50;99.90;;;;;;5065143;28;20206;-72
2023/06/05 07:36:46;;;;;;;4.32;3.92;;;23.30;99.90;;;;;;5062203;28;20227;-73
2023/06/05 07:39:16;;;;;;;3.63;3.15;;;23.40;99.90;;;;;;5073374;28;20206;-74
2023/06/05 07:41:43;;;;;;;6.40;3.65;;;23.10;99.90;;;;;;5066528;28;20210;-71
2023/06/05 07:44:11;;;;;;;4.22;3.13;;;23.30;99.90;;;;;;5073686;28;20257;-71
2023/06/05 07:46:40;;;;;;;4.75;3.85;;;23.20;99.90;;;;;;5072624;28;20206;-69
2023/06/05 07:49:07;;;;;;;6.50;3.70;;;23.20;99.90;;;;;;5064974;28;20233;-74
2023/06/05 07:51:35;;;;;;;4.30;3.92;;;23.30;99.90;;;;;;5072553;28;20695;-75
2023/06/05 07:54:03;;;;;;;4.10;3.80;;;23.20;99.90;;;;;;5069954;28;20297;-78
2023/06/05 07:56:32;;;;;;;7.00;4.70;;;23.20;99.90;;;;;;5071335;28;20206;-76
2023/06/05 07:59:00;;;;;;;4.68;4.28;;;23.30;99.90;;;;;;5072613;28;20208;-72
2023/06/05 08:01:27;;;;;;;4.70;4.30;;;23.40;99.90;;;;;;5072577;28;20213;-72
2023/06/05 08:03:54;;;;;;;6.90;4.78;;;23.30;99.90;;;;;;5074192;28;20246;-75
2023/06/05 08:06:21;;;;;;;5.50;4.22;;;23.30;99.90;;;;;;5065495;28;20261;-75
2023/06/05 08:08:48;;;;;;;9.95;6.28;;;23.20;99.90;;;;;;5071399;28;20248;-72
2023/06/05 08:11:15;;;;;;;4.70;3.88;;;22.90;99.90;;;;;;5064459;28;20679;-71
2023/06/05 08:13:45;;;;;;;5.03;4.55;;;22.90;99.90;;;;;;5066101;28;20238;-70
2023/06/05 08:16:12;;;;;;;4.50;4.10;;;23.10;99.90;;;;;;5065084;28;20582;-71
2023/06/05 08:18:39;;;;;;;3.92;3.63;;;23.10;99.90;;;;;;5065613;28;20237;-68
2023/06/05 08:21:06;;;;;;;5.32;4.38;;;23.40;99.90;;;;;;5070609;28;20206;-72
2023/06/05 08:23:33;;;;;;;4.50;3.72;;;24.00;99.90;;;;;;5061981;28;20643;-73
2023/06/05 08:26:00;;;;;;;5.50;4.22;;;25.30;99.90;;;;;;5063319;28;20248;-70
2023/06/05 08:28:26;;;;;;;5.05;4.50;;;24.90;99.90;;;;;;5071453;28;20245;-72
2023/06/05 08:30:56;;;;;;;6.25;4.22;;;24.50;99.90;;;;;;5066038;28;20674;-72
2023/06/05 08:33:23;;;;;;;4.60;4.20;;;24.20;99.90;;;;;;5070788;28;20296;-71
2023/06/05 08:35:50;;;;;;;4.38;3.90;;;23.60;99.90;;;;;;5064040;28;20708;-73
2023/06/05 08:38:17;;;;;;;4.00;3.53;;;23.80;99.90;;;;;;5071504;28;20705;-72
2023/06/05 08:40:48;;;;;;;8.00;4.47;;;23.90;99.90;;;;;;5059497;28;20256;-75
2023/06/05 08:43:15;;;;;;;4.80;3.72;;;24.20;99.90;;;;;;5065938;28;20206;-72
2023/06/05 08:45:42;;;;;;;5.40;4.88;;;24.30;99.90;;;;;;5064754;28;20256;-76
2023/06/05 08:48:14;;;;;;;8.88;3.90;;;24.50;99.90;;;;;;5069111;28;20293;-69
2023/06/05 08:50:42;;;;;;;3.88;3.58;;;24.60;99.90;;;;;;5065107;28;20234;-75
2023/06/05 08:53:12;;;;;;;5.25;4.20;;;25.00;99.90;;;;;;5067562;28;20234;-75
2023/06/05 08:55:40;;;;;;;5.40;4.03;;;25.10;99.90;;;;;;5068415;28;20260;-79
2023/06/05 08:58:07;;;;;;;5.75;4.55;;;25.50;99.90;;;;;;5056071;28;20612;-77
2023/06/05 09:00:34;;;;;;;5.20;4.15;;;25.50;99.90;;;;;;5068182;28;20240;-74
2023/06/05 09:03:01;;;;;;;4.93;4.00;;;25.90;99.90;;;;;;5071443;28;20229;-73
2023/06/05 09:05:30;;;;;;;4.20;3.80;;;26.00;99.90;;;;;;5071152;28;20677;-75
2023/06/05 09:07:58;;;;;;;3.72;3.42;;;26.50;99.90;;;;;;5070505;28;20230;-76
2023/06/05 09:10:27;;;;;;;4.38;3.97;;;26.80;99.90;;;;;;5070091;28;20198;-77
2023/06/05 09:12:55;;;;;;;6.88;5.05;;;26.10;99.90;;;;;;5071470;28;20206;-76
2023/06/05 09:15:23;;;;;;;5.03;4.57;;;26.10;99.90;;;;;;5069817;28;20307;-74
2023/06/05 09:18:03;;;;;;;4.15;3.75;;;26.70;99.90;;;;;;5063459;28;20710;-74
2023/06/05 09:20:34;;;;;;;3.88;3.53;;;26.00;99.90;;;;;;5070290;28;20693;-75
2023/06/05 09:23:02;;;;;;;4.18;3.80;;;26.20;99.90;;;;;;5061915;28;20996;-75
2023/06/05 09:25:47;;;;;;;4.18;3.70;;;26.60;99.90;;;;;;5070762;28;20198;-73
2023/06/05 09:28:16;;;;;;;6.15;4.88;;;26.70;99.90;;;;;;5060674;28;20297;-76
2023/06/05 09:30:57;;;;;;;4.32;3.92;;;26.80;99.90;;;;;;5066615;28;20212;-74
2023/06/05 09:33:24;;;;;;;3.72;3.42;;;29.60;99.90;;;;;;5070591;28;20213;-79
2023/06/05 09:36:06;;;;;;;4.20;3.90;;;33.80;99.90;;;;;;5068321;28;20754;-74
2023/06/05 09:38:34;;;;;;;4.32;3.92;;;35.50;99.90;;;;;;5059764;28;20229;-70
2023/06/05 09:41:05;;;;;;;5.18;4.78;;;36.90;99.90;;;;;;5070795;28;20294;-77
2023/06/05 09:43:32;;;;;;;4.63;4.22;;;38.60;99.90;;;;;;5068493;28;20205;-68
2023/06/05 09:45:59;;;;;;;5.35;4.22;;;38.20;99.90;;;;;;5060202;28;20677;-70
2023/06/05 09:48:26;;;;;;;4.68;4.22;;;36.60;99.90;;;;;;5069091;28;20205;-74
2023/06/05 09:50:54;;;;;;;5.22;4.72;;;39.60;99.90;;;;;;5067795;28;20233;-70
2023/06/05 09:53:23;;;;;;;4.22;3.88;;;41.50;99.90;;;;;;5083512;28;20650;-74
2023/06/05 09:55:50;;;;;;;5.43;4.90;;;42.30;99.90;;;;;;5073931;28;20247;-69
2023/06/05 09:58:18;;;;;;;4.38;3.88;;;43.10;99.90;;;;;;5080723;28;20659;-74
2023/06/05 10:00:46;;;;;;;5.20;3.88;;;42.30;99.90;;;;;;5062146;28;20229;-72
2023/06/05 10:03:16;;;;;;;3.90;3.60;;;41.90;99.90;;;;;;5061722;28;20237;-72
2023/06/05 10:05:44;;;;;;;4.60;4.20;;;43.00;99.90;;;;;;5065925;28;20205;-71
2023/06/05 10:08:13;;;;;;;4.32;3.92;;;43.20;99.90;;;;;;5057839;28;20203;-73
2023/06/05 10:10:42;;;;;;;5.43;4.15;;;42.60;99.90;;;;;;5071009;28;20212;-70
2023/06/05 10:13:11;;;;;;;3.72;3.42;;;43.40;99.90;;;;;;5064130;28;20201;-71
2023/06/05 10:15:41;;;;;;;4.50;4.10;;;43.40;99.90;;;;;;5070115;28;20209;-73
2023/06/05 10:18:08;;;;;;;4.78;4.40;;;43.80;99.90;;;;;;5067289;28;20306;-72
2023/06/05 10:20:37;;;;;;;4.85;4.07;;;42.80;99.90;;;;;;5067132;28;20654;-74
2023/06/05 10:23:06;;;;;;;5.13;4.65;;;41.20;99.90;;;;;;5066631;28;20568;-74
2023/06/05 10:25:36;;;;;;;4.20;3.85;;;42.10;99.90;;;;;;5069316;28;20244;-73
2023/06/05 10:28:26;;;;;;;6.38;4.32;;;42.00;99.90;;;;;;5067466;28;20213;-69
2023/06/05 10:31:15;;;;;;;5.80;4.18;;;40.90;99.90;;;;;;5065848;28;20296;-73
2023/06/05 10:34:03;;;;;;;4.57;4.28;;;36.60;99.90;;;;;;5067587;28;20209;-69
2023/06/05 10:36:46;;;;;;;4.47;4.07;;;32.70;99.90;;;;;;5065764;28;20223;-68
2023/06/05 10:39:15;;;;;;;3.90;3.42;;;30.10;99.90;;;;;;5066586;28;20260;-69
2023/06/05 10:41:43;;;;;;;3.53;3.22;;;29.10;99.90;;;;;;5067642;28;20326;-69
2023/06/05 10:44:12;;;;;;;3.97;3.67;;;28.80;99.90;;;;;;5069749;28;20247;-69
2023/06/05 10:46:40;;;;;;;3.70;3.40;;;28.50;99.90;;;;;;5061970;28;20258;-69
2023/06/05 10:49:13;;;;;;;3.38;3.17;;;28.50;99.90;;;;;;5069747;28;20202;-71
2023/06/05 10:51:42;;;;;;;3.50;3.28;;;28.30;99.90;;;;;;5068952;28;20738;-71
2023/06/05 10:54:10;;;;;;;3.50;3.20;;;28.10;99.90;;;;;;5072790;28;20213;-69
2023/06/05 10:56:58;;;;;;;4.20;3.15;;;28.30;99.90;;;;;;5081182;28;20205;-70
2023/06/05 10:59:27;;;;;;;3.80;3.50;;;28.30;99.90;;;;;;5075045;28;20736;-69
2023/06/05 11:02:25;;;;;;;5.90;4.13;;;28.20;99.90;;;;;;5052920;28;20237;-76
2023/06/05 11:05:06;;;;;;;4.00;3.70;;;28.50;99.90;;;;;;5061079;28;20735;-72
2023/06/05 11:07:33;;;;;;;4.15;3.60;;;28.50;99.90;;;;;;5056399;28;20352;-75
2023/06/05 11:10:15;;;;;;;4.10;3.72;;;28.70;99.90;;;;;;5058602;28;20229;-79
2023/06/05 11:12:58;;;;;;;4.43;4.03;;;29.00;99.90;;;;;;5053945;28;20210;-70
2023/06/05 11:15:40;;;;;;;4.10;3.65;;;29.10;99.90;;;;;;5064134;28;20217;-74
2023/06/05 11:18:33;;;;;;;3.50;3.17;;;29.20;99.90;;;;;;5059851;28;20567;-68
2023/06/05 11:21:01;;;;;;;3.60;3.30;;;29.20;99.90;;;;;;5076913;28;20254;-73
2023/06/05 11:23:29;;;;;;;4.25;3.95;;;29.30;99.90;;;;;;5067201;28;20224;-70
2023/06/05 11:26:15;;;;;;;3.95;3.60;;;28.90;99.90;;;;;;5063595;28;20226;-73
2023/06/05 11:28:43;;;;;;;3.90;3.60;;;28.70;99.90;;;;;;5063653;28;20214;-71
2023/06/05 11:31:12;;;;;;;3.55;3.33;;;28.90;99.90;;;;;;5068520;28;20256;-73
2023/06/05 11:33:39;;;;;;;3.50;3.22;;;29.10;99.90;;;;;;5072146;28;20210;-72
2023/06/05 11:36:12;;;;;;;4.90;2.92;;;28.80;99.90;;;;;;5070782;28;20850;-72
2023/06/05 11:38:39;;;;;;;4.35;4.05;;;28.10;99.90;;;;;;5066624;28;20820;-72
2023/06/05 11:41:10;;;;;;;3.55;3.25;;;27.70;99.90;;;;;;5068061;28;20234;-72
2023/06/05 11:43:44;;;;;;;5.13;3.65;;;27.30;99.90;;;;;;5069209;28;20625;-74
2023/06/05 11:46:12;;;;;;;3.72;3.35;;;27.20;99.90;;;;;;5072742;28;20581;-73
2023/06/05 11:48:44;;;;;;;5.47;3.30;;;27.20;99.90;;;;;;5072542;28;20700;-73
2023/06/05 11:51:12;;;;;;;4.15;3.05;;;27.00;99.90;;;;;;5073426;28;20208;-70
2023/06/05 11:53:46;;;;;;;4.22;3.47;;;27.00;99.90;;;;;;5069269;28;20238;-72
2023/06/05 11:56:16;;;;;;;3.50;3.20;;;27.00;99.90;;;;;;5070308;28;20201;-74
2023/06/05 11:58:44;;;;;;;3.30;3.00;;;27.50;99.90;;;;;;5072742;28;20244;-73
2023/06/05 12:01:17;;;;;;;4.10;3.20;;;28.30;99.90;;;;;;5073219;28;20202;-73
2023/06/05 12:03:46;;;;;;;3.88;3.15;;;28.70;99.90;;;;;;5072820;28;20210;-74
2023/06/05 12:06:13;;;;;;;3.90;3.58;;;28.30;99.90;;;;;;5057823;28;20207;-72
2023/06/05 12:08:41;;;;;;;4.32;3.92;;;28.10;99.90;;;;;;5073115;28;20202;-74
2023/06/05 12:11:22;;;;;;;3.30;3.00;;;27.90;99.90;;;;;;5072952;28;20206;-74
2023/06/05 12:13:50;;;;;;;3.70;2.92;;;27.40;99.90;;;;;;5072444;28;20205;-75
2023/06/05 12:16:19;;;;;;;6.15;4.00;;;27.30;99.90;;;;;;5072163;28;20226;-74
2023/06/05 12:18:48;;;;;;;6.50;3.42;;;27.30;99.90;;;;;;5072496;28;20269;-74
2023/06/05 12:21:22;;;;;;;4.10;3.80;;;26.90;99.90;;;;;;5072161;28;20206;-70
2023/06/05 12:23:49;;;;;;;3.95;3.40;;;26.90;99.90;;;;;;5072655;28;20237;-72
2023/06/05 12:26:16;;;;;;;3.55;3.25;;;27.00;99.90;;;;;;5072054;28;20212;-72
2023/06/05 12:28:45;;;;;;;3.80;3.28;;;27.00;99.90;;;;;;5072174;28;20245;-72
2023/06/05 12:31:12;;;;;;;3.90;3.47;;;26.90;99.90;;;;;;5072635;28;20209;-74
2023/06/05 12:33:50;;;;;;;3.40;3.10;;;26.80;99.90;;;;;;5072029;28;20249;-72
2023/06/05 12:36:17;;;;;;;3.28;2.97;;;26.80;99.90;;;;;;5071613;28;20237;-73
2023/06/05 12:38:45;;;;;;;3.72;3.35;;;26.80;99.90;;;;;;5072113;28;20230;-73
2023/06/05 12:41:12;;;;;;;3.10;2.90;;;26.80;99.90;;;;;;5072488;28;20206;-74
2023/06/05 12:43:39;;;;;;;5.95;3.80;;;26.80;99.90;;;;;;5072071;28;20213;-73
2023/06/05 12:46:07;;;;;;;3.53;3.22;;;26.80;99.90;;;;;;5071889;28;20245;-72
2023/06/05 12:48:35;;;;;;;3.75;3.45;;;26.90;99.90;;;;;;5071683;28;20253;-73
2023/06/05 12:51:03;;;;;;;4.15;3.22;;;26.80;99.90;;;;;;5071974;28;20325;-73
2023/06/05 12:53:30;;;;;;;5.35;3.60;;;26.80;99.90;;;;;;5071534;28;20210;-73
2023/06/05 12:55:57;;;;;;;5.15;3.15;;;26.80;99.90;;;;;;5072003;28;20313;-73
2023/06/05 12:58:24;;;;;;;4.03;2.80;;;26.80;99.90;;;;;;5071205;28;20781;-73